Meteo Giornale » Osservazioni meteo Stati Uniti (USA) » Scappoose Industrial Airpark
ore: 07:18 - Osservazioni Meteo Scappoose Industrial Airpark
Lat. 45° 46' N Lon. 122° 51' W Alt. 16 metri s.l.m.
14 °C
Foschia
Temp. 24 Ore
14 °C
31 °C
Nord
5.5 Km/h
Dew point 13 °C
Umidità 93 %
Visibilità 5 Km
Il sole sorge alle ore 06:32
Il sole tramonta alle ore 19:49
| Data e Ora | Cielo e Fenomeni | T °C | DP °C | Um. % | Pres. hPa | Vis. km | Vento km/h | |
|---|---|---|---|---|---|---|---|---|
| Oggi h: 07:18 | Foschia | 14 | 13 | 93 | 1011 | 5 | N 5.5 | |
| Oggi h: 06:53 | Coperto | 14 | 13 | 93 | 1011 | 11 | N 0 | |
| Oggi h: 05:53 | Coperto | 16 | 12 | 77 | 1010 | 10 | N 0 | |
| Oggi h: 04:53 | Coperto | 15 | 12 | 82 | 1010 | 10 | N 0 | |
| Oggi h: 03:53 | Coperto | 15 | 12 | 82 | 1010 | 10 | N 5.5 | |
| Oggi h: 03:36 | Molto Nuvoloso | 14 | 12 | 87 | 1010 | 10 | N 0 | |
| Oggi h: 02:53 | Sereno | 15 | 12 | 82 | 1010 | 10 | N 0 | |
| Oggi h: 01:53 | Sereno | 16 | 12 | 77 | 1009 | 10 | N 0 | |
| Oggi h: 00:53 | Sereno | 17 | 13 | 77 | 1009 | 10 | N 0 | |
| Ieri h: 23:53 | Sereno | 19 | 12 | 63 | 1008 | 10 | N/NO 11.1 | |
| Ieri h: 22:53 | Sereno | 20 | 12 | 59 | 1008 | 10 | N/NO 9.3 | |
| Ieri h: 21:53 | Sereno | 22 | 13 | 56 | 1007 | 10 | N/NO 11.1 | |
| Ieri h: 20:53 | Sereno | 23 | 13 | 53 | 1007 | 10 | N 5.5 | |
| Ieri h: 19:53 | Sereno | 26 | 13 | 44 | 1006 | 10 | NO 9.3 | |
| Ieri h: 18:53 | Sereno | 29 | 9 | 28 | 1006 | 10 | N/NO 7.4 | |
| Ieri h: 17:53 | Sereno | 29 | 8 | 26 | 1006 | 10 | N 5.5 | |
| Ieri h: 16:53 | Sereno | 31 | 6 | 20 | 1006 | 10 | E 7.4 | |
| Ieri h: 15:53 | Sereno | 31 | 9 | 25 | 1006 | 10 | N 5.5 | |
| Ieri h: 14:53 | Sereno | 29 | 10 | 30 | 1007 | 10 | E/NE 11.1 | |
| Ieri h: 13:53 | Sereno | 28 | 9 | 30 | 1007 | 10 | N 0 | |
| Ieri h: 12:53 | Sereno | 26 | 10 | 36 | 1008 | 10 | N 7.4 | |
| Ieri h: 11:53 | Sereno | 25 | 11 | 41 | 1009 | 10 | N 0 | |
| Ieri h: 10:53 | Sereno | 22 | 11 | 49 | 1010 | 10 | N/NE 9.3 | |
| Ieri h: 09:53 | Sereno | 19 | 11 | 59 | 1010 | 10 | N/NE 7.4 | |
| Ieri h: 08:53 | Sereno | 17 | 11 | 67 | 1011 | 10 | N 0 | |
| Ieri h: 07:53 | Sereno | 16 | 11 | 72 | 1011 | 10 | N 16.7 | |



